createdAt,value
2023-04-20T00:03:46.662Z,97944.47
2023-04-20T00:08:48.382Z,97946.25
2023-04-20T00:13:50.051Z,97942.50
2023-04-20T00:18:52.252Z,97940.47
2023-04-20T00:23:53.896Z,97933.28
2023-04-20T00:28:55.539Z,97929.63
2023-04-20T00:33:57.237Z,97933.00
2023-04-20T00:38:59.363Z,97940.06
2023-04-20T00:44:03.802Z,97930.44
2023-04-20T00:49:06.708Z,97925.44
2023-04-20T00:54:08.460Z,97928.13
2023-04-20T00:59:10.368Z,97921.66
2023-04-20T01:04:12.223Z,97917.72
2023-04-20T01:09:13.915Z,97917.41
2023-04-20T01:14:15.543Z,97912.00
2023-04-20T01:19:17.379Z,97917.97
2023-04-20T01:24:19.203Z,97912.53
2023-04-20T01:29:21.004Z,97911.19
2023-04-20T01:34:22.647Z,97910.25
2023-04-20T01:39:24.563Z,97905.34
2023-04-20T01:44:26.221Z,97906.84
2023-04-20T01:49:28.592Z,97904.00
2023-04-20T01:54:30.236Z,97903.59
2023-04-20T01:59:31.916Z,97897.63
2023-04-20T02:04:36.739Z,97902.09
2023-04-20T02:09:38.358Z,97900.84
2023-04-20T02:14:40.024Z,97902.06
2023-04-20T02:19:44.427Z,97894.56
2023-04-20T02:24:46.096Z,97890.50
2023-04-20T02:29:49.428Z,97893.44
2023-04-20T02:34:51.186Z,97900.19
2023-04-20T02:39:52.816Z,97890.38
2023-04-20T02:44:54.429Z,97897.63
2023-04-20T02:49:56.163Z,97895.00
2023-04-20T02:54:58.157Z,97894.78
2023-04-20T03:00:00.169Z,97897.53
2023-04-20T03:05:14.030Z,97898.13
2023-04-20T03:10:18.792Z,97908.84
2023-04-20T03:15:41.014Z,97897.00
2023-04-20T03:21:02.957Z,97901.66
2023-04-20T03:26:06.389Z,97901.19
2023-04-20T03:31:15.949Z,97900.09
2023-04-20T03:36:18.581Z,97896.44
2023-04-20T03:41:20.454Z,97898.38
2023-04-20T03:46:23.333Z,97894.63
2023-04-20T03:51:25.309Z,97893.75
2023-04-20T03:56:27.339Z,97899.13
2023-04-20T04:01:30.068Z,97907.44
2023-04-20T04:06:32.634Z,97894.75
2023-04-20T04:11:34.446Z,97892.28
2023-04-20T04:16:36.246Z,97883.53
2023-04-20T04:21:38.052Z,97888.78
2023-04-20T04:26:40.399Z,97892.16
2023-04-20T04:31:42.336Z,97901.22
2023-04-20T04:36:50.345Z,97903.44
2023-04-20T04:41:57.834Z,97901.00
2023-04-20T04:47:09.567Z,97900.91
2023-04-20T04:52:11.300Z,97905.94
2023-04-20T04:57:13.122Z,97905.72
2023-04-20T05:02:14.847Z,97920.13
2023-04-20T05:07:17.439Z,97919.78
2023-04-20T05:12:19.599Z,97925.34
2023-04-20T05:17:21.521Z,97925.41
2023-04-20T05:22:23.343Z,97937.97
2023-04-20T05:27:25.198Z,97938.75
2023-04-20T05:32:27.117Z,97945.63
2023-04-20T05:37:28.946Z,97958.34
2023-04-20T05:42:30.815Z,97952.16
2023-04-20T05:47:32.725Z,97963.13
2023-04-20T05:52:34.754Z,97953.16
2023-04-20T05:57:42.741Z,97964.81
2023-04-20T06:02:44.827Z,97961.72
2023-04-20T06:07:47.174Z,97953.25
2023-04-20T06:12:49.118Z,97960.72
2023-04-20T06:17:50.937Z,97969.75
2023-04-20T06:22:52.820Z,97969.34
2023-04-20T06:27:54.606Z,97974.53
2023-04-20T06:32:57.037Z,97975.66
2023-04-20T06:37:59.627Z,97968.72
2023-04-20T06:43:01.484Z,97974.16
2023-04-20T06:48:03.773Z,97967.22
2023-04-20T06:53:05.813Z,97963.97
2023-04-20T06:58:07.657Z,97956.25
2023-04-20T07:03:09.728Z,97968.59
2023-04-20T07:08:11.712Z,97961.16
2023-04-20T07:13:13.489Z,97968.47
2023-04-20T07:18:15.341Z,97969.69
2023-04-20T07:23:17.156Z,97979.44
2023-04-20T07:28:18.955Z,97976.56
2023-04-20T07:33:21.221Z,97967.44
2023-04-20T07:38:23.066Z,97964.06
2023-04-20T07:43:24.896Z,97955.75
2023-04-20T07:48:26.723Z,97960.53
2023-04-20T07:53:31.706Z,97973.25
2023-04-20T07:58:33.534Z,97979.56
2023-04-20T08:03:36.402Z,97979.69
2023-04-20T08:08:38.316Z,97987.81
2023-04-20T08:13:41.426Z,97975.31
2023-04-20T08:18:43.218Z,97979.44
2023-04-20T08:23:45.049Z,97972.19
2023-04-20T08:28:46.915Z,97973.16
2023-04-20T08:33:48.886Z,97971.50
2023-04-20T08:39:08.117Z,97967.59
2023-04-20T08:44:10.079Z,97961.34
2023-04-20T08:49:14.680Z,97958.31
2023-04-20T08:54:17.022Z,97965.47
2023-04-20T08:59:19.218Z,97966.84
2023-04-20T09:04:27.148Z,97979.97
2023-04-20T09:09:29.410Z,97986.13
2023-04-20T09:14:41.974Z,97984.16
2023-04-20T09:19:45.195Z,97986.72
2023-04-20T09:24:47.099Z,97987.47
2023-04-20T09:30:04.054Z,97980.56
2023-04-20T09:35:07.704Z,97981.25
2023-04-20T09:40:10.346Z,97973.78
2023-04-20T09:45:14.789Z,97984.84
2023-04-20T09:50:26.897Z,97988.53
2023-04-20T09:55:34.248Z,97976.94
2023-04-20T10:00:36.117Z,97965.72
2023-04-20T10:05:39.747Z,97955.66
2023-04-20T10:10:49.958Z,97956.56
2023-04-20T10:15:51.888Z,97952.75
2023-04-20T10:21:07.049Z,97949.72
2023-04-20T10:26:08.900Z,97947.13
2023-04-20T10:31:17.043Z,97940.41
2023-04-20T10:36:27.614Z,97937.84
2023-04-20T10:41:29.438Z,97939.88
2023-04-20T10:46:31.694Z,97928.72
2023-04-20T10:51:33.484Z,97927.81
2023-04-20T10:56:46.319Z,97925.69
2023-04-20T11:01:48.952Z,97926.06
2023-04-20T11:06:50.888Z,97930.22
2023-04-20T11:12:00.439Z,97918.53
2023-04-20T11:17:02.610Z,97922.34
2023-04-20T11:22:06.470Z,97920.94
2023-04-20T11:27:08.486Z,97926.09
2023-04-20T11:32:11.395Z,97917.03
2023-04-20T11:37:13.903Z,97915.78
2023-04-20T11:42:15.723Z,97916.53
2023-04-20T11:47:17.548Z,97916.38
2023-04-20T11:52:19.345Z,97919.91
2023-04-20T11:57:23.938Z,97919.09
2023-04-20T12:02:26.035Z,97920.09
2023-04-20T12:07:28.363Z,97910.16
2023-04-20T12:12:30.195Z,97915.69
2023-04-20T12:17:32.054Z,97909.66
2023-04-20T12:22:33.890Z,97903.00
2023-04-20T12:27:35.813Z,97901.38
2023-04-20T12:32:37.798Z,97891.59
2023-04-20T12:37:39.634Z,97886.50
2023-04-20T12:42:41.509Z,97881.28
2023-04-20T12:47:43.342Z,97880.03
2023-04-20T12:52:45.410Z,97880.19
2023-04-20T12:57:47.233Z,97879.34
2023-04-20T13:02:50.108Z,97876.13
2023-04-20T13:07:52.146Z,97875.16
2023-04-20T13:12:53.994Z,97875.47
2023-04-20T13:17:55.947Z,97867.66
2023-04-20T13:23:01.206Z,97865.31
2023-04-20T13:28:03.809Z,97872.63
2023-04-20T13:33:06.719Z,97872.38
2023-04-20T13:38:08.655Z,97881.38
2023-04-20T13:43:10.596Z,97879.97
2023-04-20T13:48:12.533Z,97868.59
2023-04-20T13:53:14.404Z,97872.50
2023-04-20T13:58:16.286Z,97874.38
2023-04-20T14:03:20.312Z,97854.22
2023-04-20T14:08:23.417Z,97857.13
2023-04-20T14:13:25.834Z,97854.25
2023-04-20T14:18:27.734Z,97857.50
2023-04-20T14:23:29.531Z,97860.78
2023-04-20T14:28:33.184Z,97854.44
2023-04-20T14:33:35.348Z,97858.72
2023-04-20T14:38:37.416Z,97856.09
2023-04-20T14:43:39.249Z,97860.28
2023-04-20T14:48:41.306Z,97856.28
2023-04-20T14:53:43.317Z,97852.66
2023-04-20T14:58:45.240Z,97844.00
2023-04-20T15:03:47.318Z,97842.84
2023-04-20T15:08:49.378Z,97846.09
2023-04-20T15:13:52.190Z,97832.50
2023-04-20T15:18:54.769Z,97835.88
2023-04-20T15:23:56.598Z,97835.91
2023-04-20T15:28:58.437Z,97836.88
2023-04-20T15:34:00.827Z,97822.94
2023-04-20T15:39:02.682Z,97826.19
2023-04-20T15:44:04.588Z,97821.66
2023-04-20T15:49:06.425Z,97824.56
2023-04-20T15:54:08.217Z,97830.38
2023-04-20T15:59:10.138Z,97834.09
2023-04-20T16:04:12.249Z,97827.28
2023-04-20T16:09:14.248Z,97829.56
2023-04-20T16:14:16.261Z,97814.66
2023-04-20T16:19:18.278Z,97810.25
2023-04-20T16:24:20.257Z,97810.91
2023-04-20T16:29:22.345Z,97812.03
2023-04-20T16:34:24.553Z,97796.97
2023-04-20T16:39:26.371Z,97788.91
2023-04-20T16:44:28.196Z,97788.22
2023-04-20T16:49:30.567Z,97789.38
2023-04-20T16:54:32.409Z,97784.03
2023-04-20T16:59:34.312Z,97786.16
2023-04-20T17:04:36.128Z,97780.00
2023-04-20T17:09:37.993Z,97779.81
2023-04-20T17:14:39.869Z,97784.81
2023-04-20T17:19:41.727Z,97787.06
2023-04-20T17:24:43.542Z,97778.81
2023-04-20T17:29:45.438Z,97776.56
2023-04-20T17:34:48.786Z,97773.44
2023-04-20T17:39:50.738Z,97777.94
2023-04-20T17:44:52.528Z,97777.25
2023-04-20T17:49:55.129Z,97764.16
2023-04-20T17:54:57.763Z,97768.97
2023-04-20T17:59:59.593Z,97774.13
2023-04-20T18:05:01.510Z,97778.78
2023-04-20T18:10:04.311Z,97774.22
2023-04-20T18:15:08.324Z,97785.69
2023-04-20T18:20:10.982Z,97778.91
2023-04-20T18:25:12.797Z,97781.66
2023-04-20T18:30:15.031Z,97792.81
2023-04-20T18:35:16.926Z,97793.91
2023-04-20T18:40:18.838Z,97802.47
2023-04-20T18:45:21.819Z,97806.19
2023-04-20T18:50:24.267Z,97807.66
2023-04-20T18:55:26.194Z,97799.53
2023-04-20T19:00:28.072Z,97801.59
2023-04-20T19:05:30.879Z,97804.78
2023-04-20T19:10:32.666Z,97799.75
2023-04-20T19:15:34.820Z,97803.53
2023-04-20T19:20:36.683Z,97801.19
2023-04-20T19:25:38.495Z,97808.50
2023-04-20T19:30:40.771Z,97799.41
2023-04-20T19:35:43.568Z,97803.59
2023-04-20T19:40:46.069Z,97799.09
2023-04-20T19:45:47.974Z,97793.09
2023-04-20T19:50:51.329Z,97789.78
2023-04-20T19:55:53.156Z,97794.31
2023-04-20T20:00:54.978Z,97788.03
2023-04-20T20:05:56.957Z,97790.25
2023-04-20T20:10:58.748Z,97790.94
2023-04-20T20:16:00.724Z,97787.00
2023-04-20T20:21:02.569Z,97783.38
2023-04-20T20:26:04.418Z,97783.75
2023-04-20T20:31:06.250Z,97790.47
2023-04-20T20:36:09.080Z,97787.50
2023-04-20T20:41:13.596Z,97787.75
2023-04-20T20:46:15.929Z,97789.50
2023-04-20T20:51:17.748Z,97787.28
2023-04-20T20:56:19.560Z,97784.56
2023-04-20T21:01:21.708Z,97796.38
2023-04-20T21:06:23.561Z,97796.28
2023-04-20T21:11:25.513Z,97797.28
2023-04-20T21:16:27.577Z,97799.75
2023-04-20T21:21:29.402Z,97795.06
2023-04-20T21:26:35.792Z,97800.56
2023-04-20T21:31:37.722Z,97791.25
2023-04-20T21:36:39.581Z,97799.31
2023-04-20T21:41:41.396Z,97802.19
2023-04-20T21:46:43.377Z,97796.38
2023-04-20T21:51:45.739Z,97804.09
2023-04-20T21:56:47.638Z,97802.09
2023-04-20T22:01:49.457Z,97799.09
2023-04-20T22:06:53.456Z,97795.53
2023-04-20T22:11:55.887Z,97797.88
2023-04-20T22:16:57.726Z,97799.91
2023-04-20T22:21:59.557Z,97799.06
2023-04-20T22:27:02.319Z,97808.91
2023-04-20T22:32:04.290Z,97814.94
2023-04-20T22:37:06.460Z,97805.94
2023-04-20T22:42:09.513Z,97803.78
2023-04-20T22:47:11.503Z,97804.66
2023-04-20T22:52:13.679Z,97806.91
2023-04-20T22:57:16.086Z,97813.66
2023-04-20T23:02:17.960Z,97822.13
2023-04-20T23:07:21.262Z,97814.44
2023-04-20T23:12:23.391Z,97817.69
2023-04-20T23:17:25.429Z,97809.31
2023-04-20T23:22:27.236Z,97808.13
2023-04-20T23:27:29.056Z,97806.22
2023-04-20T23:32:31.452Z,97808.72
2023-04-20T23:37:33.329Z,97811.69
2023-04-20T23:42:38.387Z,97813.06
2023-04-20T23:47:40.337Z,97811.41
2023-04-20T23:52:42.249Z,97799.22
2023-04-20T23:57:44.194Z,97802.47
